createdAt,value
2018-09-27T00:01:48.184Z,53.96
2018-09-27T00:04:18.159Z,53.86
2018-09-27T00:06:48.913Z,52.96
2018-09-27T00:09:19.329Z,52.69
2018-09-27T00:11:49.604Z,52.45
2018-09-27T00:14:20.429Z,51.90
2018-09-27T00:16:50.795Z,51.20
2018-09-27T00:19:20.930Z,51.06
2018-09-27T00:21:51.184Z,50.86
2018-09-27T00:24:21.223Z,50.66
2018-09-27T00:26:51.638Z,52.20
2018-09-27T00:29:21.892Z,52.50
2018-09-27T00:31:51.924Z,52.26
2018-09-27T00:34:22.508Z,52.76
2018-09-27T00:36:52.988Z,52.35
2018-09-27T00:39:23.273Z,51.88
2018-09-27T00:41:53.593Z,51.74
2018-09-27T00:44:23.751Z,51.83
2018-09-27T00:46:54.283Z,52.30
2018-09-27T00:49:24.953Z,52.26
2018-09-27T00:51:55.722Z,52.21
2018-09-27T00:54:25.955Z,52.20
2018-09-27T00:56:57.247Z,52.37
2018-09-27T00:59:27.125Z,52.35
2018-09-27T01:01:59.137Z,52.33
2018-09-27T01:04:30.081Z,51.51
2018-09-27T01:07:00.356Z,52.41
2018-09-27T01:09:30.472Z,51.99
2018-09-27T01:12:03.349Z,52.08
2018-09-27T01:14:33.449Z,51.70
2018-09-27T01:17:03.633Z,51.76
2018-09-27T01:19:33.537Z,51.33
2018-09-27T01:22:03.679Z,51.41
2018-09-27T01:24:33.821Z,51.43
2018-09-27T01:27:05.101Z,51.43
2018-09-27T01:29:35.204Z,50.94
2018-09-27T01:32:06.444Z,51.13
2018-09-27T01:34:36.664Z,50.41
2018-09-27T01:37:06.894Z,50.63
2018-09-27T01:39:36.901Z,50.16
2018-09-27T01:42:07.253Z,50.78
2018-09-27T01:44:37.393Z,50.48
2018-09-27T01:47:07.637Z,50.19
2018-09-27T01:49:38.288Z,50.50
2018-09-27T01:52:09.069Z,50.78
2018-09-27T01:54:39.202Z,49.74
2018-09-27T01:57:09.844Z,49.52
2018-09-27T01:59:40.173Z,49.52
2018-09-27T02:02:11.913Z,48.78
2018-09-27T02:04:42.137Z,49.07
2018-09-27T02:07:12.417Z,48.65
2018-09-27T02:09:42.660Z,49.36
2018-09-27T02:12:12.878Z,48.96
2018-09-27T02:14:44.018Z,49.03
2018-09-27T02:17:14.062Z,49.59
2018-09-27T02:19:44.040Z,50.00
2018-09-27T02:22:15.326Z,50.03
2018-09-27T02:24:47.081Z,49.96
2018-09-27T02:27:17.176Z,50.22
2018-09-27T02:29:47.097Z,50.78
2018-09-27T02:32:19.754Z,50.64
2018-09-27T02:34:49.757Z,50.92
2018-09-27T02:37:19.947Z,50.78
2018-09-27T02:39:50.008Z,50.81
2018-09-27T02:42:20.400Z,50.52
2018-09-27T02:44:50.413Z,50.33
2018-09-27T02:47:20.429Z,50.15
2018-09-27T02:49:50.608Z,50.22
2018-09-27T02:52:21.536Z,49.50
2018-09-27T02:54:52.242Z,50.12
2018-09-27T02:57:22.481Z,50.64
2018-09-27T02:59:52.674Z,51.58
2018-09-27T03:02:23.140Z,52.71
2018-09-27T03:04:53.635Z,52.09
2018-09-27T03:07:23.716Z,52.55
2018-09-27T03:09:53.834Z,52.14
2018-09-27T03:12:24.069Z,51.85
2018-09-27T03:14:54.414Z,51.92
2018-09-27T03:17:24.555Z,51.33
2018-09-27T03:19:54.498Z,50.73
2018-09-27T03:22:24.406Z,50.94
2018-09-27T03:24:55.082Z,50.26
2018-09-27T03:27:26.324Z,50.25
2018-09-27T03:29:56.465Z,50.03
2018-09-27T03:32:26.728Z,49.56
2018-09-27T03:34:56.822Z,49.48
2018-09-27T03:37:28.342Z,49.57
2018-09-27T03:39:58.907Z,49.33
2018-09-27T03:42:29.893Z,48.80
2018-09-27T03:45:00.054Z,49.22
2018-09-27T03:47:30.223Z,49.21
2018-09-27T03:50:00.683Z,49.59
2018-09-27T03:52:31.904Z,49.57
2018-09-27T03:55:02.165Z,50.06
2018-09-27T03:57:32.392Z,51.91
2018-09-27T04:00:02.551Z,51.95
2018-09-27T04:02:32.883Z,52.35
2018-09-27T04:05:03.065Z,53.05
2018-09-27T04:07:33.630Z,52.73
2018-09-27T04:10:03.938Z,53.40
2018-09-27T04:12:34.770Z,53.67
2018-09-27T04:15:05.835Z,53.37
2018-09-27T04:17:36.141Z,52.91
2018-09-27T04:20:06.201Z,53.21
2018-09-27T04:22:37.507Z,53.83
2018-09-27T04:25:07.772Z,54.10
2018-09-27T04:27:37.893Z,52.87
2018-09-27T04:30:09.712Z,52.51
2018-09-27T04:32:40.836Z,52.25
2018-09-27T04:35:11.179Z,51.20
2018-09-27T04:37:42.310Z,51.33
2018-09-27T04:40:13.644Z,51.05
2018-09-27T04:42:43.715Z,50.44
2018-09-27T04:45:14.356Z,50.33
2018-09-27T04:47:44.686Z,50.11
2018-09-27T04:50:15.706Z,49.48
2018-09-27T04:52:46.086Z,49.30
2018-09-27T04:55:16.179Z,48.87
2018-09-27T04:57:47.670Z,47.84
2018-09-27T05:00:18.195Z,46.76
2018-09-27T05:02:50.168Z,45.80
2018-09-27T05:05:20.625Z,44.69
2018-09-27T05:07:51.696Z,44.98
2018-09-27T05:10:22.912Z,45.75
2018-09-27T05:12:52.969Z,45.41
2018-09-27T05:15:23.096Z,45.57
2018-09-27T05:17:53.259Z,45.31
2018-09-27T05:20:23.522Z,45.38
2018-09-27T05:22:55.728Z,45.83
2018-09-27T05:25:26.611Z,46.03
2018-09-27T05:27:57.465Z,45.33
2018-09-27T05:30:28.559Z,44.02
2018-09-27T05:32:59.001Z,42.99
2018-09-27T05:35:30.077Z,43.03
2018-09-27T05:38:00.191Z,42.04
2018-09-27T05:40:31.456Z,39.99
2018-09-27T05:43:01.880Z,40.84
2018-09-27T05:45:32.093Z,39.86
2018-09-27T05:48:02.421Z,40.35
2018-09-27T05:50:33.516Z,39.00
2018-09-27T05:53:03.789Z,38.05
2018-09-27T05:55:34.329Z,37.29
2018-09-27T05:58:04.435Z,36.30
2018-09-27T06:00:34.651Z,36.50
2018-09-27T06:03:06.550Z,35.81
2018-09-27T06:05:37.889Z,36.24
2018-09-27T06:08:08.123Z,35.18
2018-09-27T06:10:39.761Z,35.94
2018-09-27T06:13:10.049Z,35.77
2018-09-27T06:15:40.467Z,36.41
2018-09-27T06:18:10.647Z,35.85
2018-09-27T06:20:40.797Z,35.23
2018-09-27T06:23:11.262Z,34.97
2018-09-27T06:25:41.329Z,34.30
2018-09-27T06:28:11.660Z,34.68
2018-09-27T06:30:41.708Z,34.24
2018-09-27T06:33:13.419Z,33.80
2018-09-27T06:35:43.826Z,34.60
2018-09-27T06:38:13.924Z,36.70
2018-09-27T06:40:44.230Z,36.62
2018-09-27T06:43:14.266Z,37.48
2018-09-27T06:45:44.475Z,40.06
2018-09-27T06:48:14.831Z,39.13
2018-09-27T06:50:45.373Z,39.72
2018-09-27T06:53:15.572Z,39.43
2018-09-27T06:55:46.521Z,39.74
2018-09-27T06:58:17.770Z,40.23
2018-09-27T07:00:47.990Z,40.64
2018-09-27T07:03:19.119Z,40.27
2018-09-27T07:05:49.152Z,40.54
2018-09-27T07:08:20.226Z,40.18
2018-09-27T07:10:50.835Z,40.98
2018-09-27T07:13:21.369Z,40.24
2018-09-27T07:15:51.811Z,41.07
2018-09-27T07:18:21.990Z,40.20
2018-09-27T07:20:53.196Z,40.49
2018-09-27T07:23:24.143Z,40.16
2018-09-27T07:25:54.246Z,41.26
2018-09-27T07:28:25.461Z,41.17
2018-09-27T07:30:55.788Z,40.64
2018-09-27T07:33:27.647Z,40.38
2018-09-27T07:35:57.720Z,40.39
2018-09-27T07:38:27.982Z,41.43
2018-09-27T07:40:57.925Z,40.07
2018-09-27T07:43:28.641Z,39.94
2018-09-27T07:45:59.175Z,39.51
2018-09-27T07:48:29.722Z,39.08
2018-09-27T07:51:00.187Z,38.91
2018-09-27T07:53:30.723Z,38.89
2018-09-27T07:56:01.154Z,38.62
2018-09-27T07:58:32.482Z,38.49
2018-09-27T08:01:02.626Z,39.33
2018-09-27T08:03:35.278Z,39.22
2018-09-27T08:06:05.676Z,38.08
2018-09-27T08:08:37.010Z,39.82
2018-09-27T08:11:07.315Z,38.25
2018-09-27T08:13:37.607Z,38.94
2018-09-27T08:16:07.667Z,37.98
2018-09-27T08:18:38.672Z,37.51
2018-09-27T08:21:09.014Z,37.62
2018-09-27T08:23:39.204Z,36.50
2018-09-27T08:26:09.385Z,37.43
2018-09-27T08:28:39.786Z,36.94
2018-09-27T08:31:10.017Z,36.48
2018-09-27T08:33:40.145Z,35.54
2018-09-27T08:36:10.448Z,36.12
2018-09-27T08:38:40.766Z,35.55
2018-09-27T08:41:12.256Z,36.04
2018-09-27T08:43:42.687Z,36.14
2018-09-27T08:46:12.807Z,36.00
2018-09-27T08:48:43.365Z,36.47
2018-09-27T08:51:13.632Z,36.11
2018-09-27T08:53:44.735Z,35.92
2018-09-27T08:56:15.113Z,37.00
2018-09-27T08:58:45.331Z,37.26
2018-09-27T09:01:15.840Z,37.62
2018-09-27T09:03:48.067Z,36.07
2018-09-27T09:06:18.025Z,36.55
2018-09-27T09:08:48.235Z,35.57
2018-09-27T09:11:18.574Z,37.02
2018-09-27T09:13:48.691Z,35.76
2018-09-27T09:16:18.904Z,36.43
2018-09-27T09:18:49.248Z,36.24
2018-09-27T09:21:20.568Z,36.49
2018-09-27T09:23:50.558Z,35.87
2018-09-27T09:26:21.539Z,35.71
2018-09-27T09:28:51.484Z,35.98
2018-09-27T09:31:21.836Z,36.58
2018-09-27T09:33:51.959Z,35.47
2018-09-27T09:36:22.172Z,35.03
2018-09-27T09:38:52.713Z,36.18
2018-09-27T09:41:23.113Z,36.31
2018-09-27T09:43:53.687Z,35.63
2018-09-27T09:46:23.842Z,36.19
2018-09-27T09:48:54.049Z,37.01
2018-09-27T09:51:24.263Z,36.21
2018-09-27T09:53:55.436Z,37.31
2018-09-27T09:56:25.390Z,36.01
2018-09-27T09:58:55.696Z,37.09
2018-09-27T10:01:25.723Z,37.31
2018-09-27T10:03:55.996Z,38.82
2018-09-27T10:06:26.161Z,37.68
2018-09-27T10:08:56.481Z,38.46
2018-09-27T10:11:26.627Z,38.21
2018-09-27T10:13:56.911Z,38.64
2018-09-27T10:16:27.977Z,37.92
2018-09-27T10:18:59.241Z,38.40
2018-09-27T10:21:29.788Z,38.35
2018-09-27T10:24:00.314Z,37.97
2018-09-27T10:26:30.337Z,38.58
2018-09-27T10:29:02.156Z,38.09
2018-09-27T10:31:32.236Z,37.99
2018-09-27T10:34:02.413Z,38.65
2018-09-27T10:36:32.819Z,37.82
2018-09-27T10:39:04.164Z,38.86
2018-09-27T10:41:33.998Z,38.66
2018-09-27T10:44:04.310Z,39.15
2018-09-27T10:46:34.485Z,39.56
2018-09-27T10:49:04.479Z,38.98
2018-09-27T10:51:34.582Z,39.39
2018-09-27T10:54:04.827Z,40.77
2018-09-27T10:56:35.068Z,39.14
2018-09-27T10:59:06.028Z,39.94
2018-09-27T11:01:36.214Z,39.46
2018-09-27T11:04:07.319Z,38.81
2018-09-27T11:06:37.853Z,40.65
2018-09-27T11:09:09.914Z,41.02
2018-09-27T11:11:40.788Z,41.11
2018-09-27T11:14:11.022Z,41.18
2018-09-27T11:16:41.110Z,41.44
2018-09-27T11:19:11.397Z,41.63
2018-09-27T11:21:41.755Z,39.23
2018-09-27T11:24:12.209Z,38.91
2018-09-27T11:26:42.677Z,39.01
2018-09-27T11:29:17.848Z,40.90
2018-09-27T11:31:53.064Z,41.81
2018-09-27T11:34:24.724Z,41.46
2018-09-27T11:36:54.913Z,42.65
2018-09-27T11:39:26.176Z,41.13
2018-09-27T11:41:56.359Z,41.52
2018-09-27T11:44:27.707Z,41.17
2018-09-27T11:46:59.008Z,42.66
2018-09-27T11:49:29.477Z,43.08
2018-09-27T11:51:59.489Z,42.25
2018-09-27T11:54:29.730Z,41.20
2018-09-27T11:57:00.261Z,43.60
2018-09-27T11:59:30.447Z,44.02
2018-09-27T12:02:00.532Z,43.04
2018-09-27T12:04:30.826Z,42.09
2018-09-27T12:07:01.355Z,42.68
2018-09-27T12:09:31.577Z,41.69
2018-09-27T12:12:01.907Z,42.05
2018-09-27T12:14:32.087Z,41.78
2018-09-27T12:17:02.825Z,42.53
2018-09-27T12:19:32.914Z,41.81
2018-09-27T12:22:03.534Z,42.43
2018-09-27T12:24:33.685Z,41.00
2018-09-27T12:27:04.087Z,40.95
2018-09-27T12:29:36.174Z,41.30
2018-09-27T12:32:07.348Z,42.48
2018-09-27T12:34:38.335Z,41.68
2018-09-27T12:37:08.815Z,42.38
2018-09-27T12:39:39.384Z,42.64
2018-09-27T12:42:10.502Z,42.88
2018-09-27T12:44:40.526Z,43.63
2018-09-27T12:47:10.607Z,43.55
2018-09-27T12:49:40.795Z,43.23
2018-09-27T12:52:11.201Z,43.88
2018-09-27T12:54:41.309Z,43.47
2018-09-27T12:57:11.593Z,43.66
2018-09-27T12:59:43.617Z,44.60
2018-09-27T13:02:13.686Z,41.98
2018-09-27T13:04:43.734Z,43.47
2018-09-27T13:07:13.748Z,44.64
2018-09-27T13:09:44.001Z,45.86
2018-09-27T13:12:14.079Z,44.68
2018-09-27T13:14:45.164Z,44.96
2018-09-27T13:17:16.389Z,44.84
2018-09-27T13:19:46.857Z,45.61
2018-09-27T13:22:16.985Z,45.65
2018-09-27T13:24:47.241Z,44.38
2018-09-27T13:27:17.401Z,44.97
2018-09-27T13:29:47.651Z,45.96
2018-09-27T13:32:18.858Z,45.34
2018-09-27T13:34:48.974Z,43.82
2018-09-27T13:37:19.276Z,44.98
2018-09-27T13:39:50.223Z,43.57
2018-09-27T13:42:20.641Z,42.67
2018-09-27T13:44:51.026Z,43.34
2018-09-27T13:47:21.264Z,42.82
2018-09-27T13:49:51.483Z,41.69
2018-09-27T13:52:21.877Z,41.34
2018-09-27T13:54:52.433Z,42.52
2018-09-27T13:57:22.804Z,41.64
2018-09-27T13:59:53.108Z,41.42
2018-09-27T14:02:23.184Z,41.50
2018-09-27T14:04:54.880Z,41.45
2018-09-27T14:07:25.399Z,41.60
2018-09-27T14:09:55.709Z,42.71
2018-09-27T14:12:25.974Z,42.45
2018-09-27T14:14:56.571Z,42.23
2018-09-27T14:17:26.715Z,42.55
2018-09-27T14:19:57.116Z,42.78
2018-09-27T14:22:27.193Z,42.82
2018-09-27T14:24:57.708Z,42.91
2018-09-27T14:27:27.977Z,42.91
2018-09-27T14:29:58.072Z,43.60
2018-09-27T14:32:29.248Z,43.77
2018-09-27T14:35:00.406Z,44.23
2018-09-27T14:37:30.960Z,44.57
2018-09-27T14:40:01.447Z,44.25
2018-09-27T14:42:32.401Z,43.82
2018-09-27T14:45:03.702Z,44.18
2018-09-27T14:47:37.590Z,44.53
2018-09-27T14:50:10.125Z,44.79
2018-09-27T14:52:41.374Z,45.22
2018-09-27T14:55:11.867Z,45.89
2018-09-27T14:57:42.572Z,46.08
2018-09-27T15:00:13.205Z,46.13
2018-09-27T15:02:44.295Z,45.95
2018-09-27T15:05:15.524Z,46.37
2018-09-27T15:07:46.162Z,47.10
2018-09-27T15:10:16.397Z,47.38
2018-09-27T15:12:46.577Z,48.19
2018-09-27T15:15:16.771Z,49.11
2018-09-27T15:17:46.907Z,49.14
2018-09-27T15:20:17.665Z,48.97
2018-09-27T15:22:48.511Z,48.72
2018-09-27T15:25:18.804Z,49.12
2018-09-27T15:27:48.876Z,49.99
2018-09-27T15:30:18.795Z,49.91
2018-09-27T15:32:49.031Z,50.13
2018-09-27T15:35:20.914Z,50.59
2018-09-27T15:37:51.207Z,49.79
2018-09-27T15:40:21.301Z,50.17
2018-09-27T15:42:52.657Z,50.22
2018-09-27T15:45:22.672Z,51.28
2018-09-27T15:47:53.861Z,51.94
2018-09-27T15:50:24.054Z,52.95
2018-09-27T15:52:54.465Z,55.02
2018-09-27T15:55:24.774Z,55.10
2018-09-27T15:57:55.768Z,56.23
2018-09-27T16:00:27.077Z,56.71
2018-09-27T16:02:57.356Z,56.83
2018-09-27T16:05:28.464Z,57.87
2018-09-27T16:07:58.896Z,58.92
2018-09-27T16:10:29.052Z,59.91
2018-09-27T16:12:59.264Z,60.37
2018-09-27T16:15:31.539Z,60.92
2018-09-27T16:18:02.232Z,60.85
2018-09-27T16:20:32.627Z,61.41
2018-09-27T16:23:02.876Z,62.42
2018-09-27T16:25:34.425Z,62.65
2018-09-27T16:28:04.244Z,62.58
2018-09-27T16:30:34.470Z,62.71
2018-09-27T16:33:05.898Z,63.23
2018-09-27T16:35:36.591Z,63.44
2018-09-27T16:38:06.782Z,63.74
2018-09-27T16:40:37.157Z,64.15
2018-09-27T16:43:07.363Z,64.82
2018-09-27T16:45:37.563Z,65.44
2018-09-27T16:48:08.025Z,65.60
2018-09-27T16:50:39.169Z,66.32
2018-09-27T16:53:10.680Z,66.68
2018-09-27T16:55:41.907Z,66.94
2018-09-27T16:58:12.120Z,67.67
2018-09-27T17:00:42.268Z,67.52
2018-09-27T17:03:12.718Z,68.26
2018-09-27T17:05:42.532Z,68.63
2018-09-27T17:08:13.520Z,68.99
2018-09-27T17:10:43.814Z,69.51
2018-09-27T17:13:14.128Z,69.79
2018-09-27T17:15:44.744Z,70.11
2018-09-27T17:18:15.199Z,69.63
2018-09-27T17:20:45.767Z,70.60
2018-09-27T17:23:15.837Z,70.75
2018-09-27T17:25:46.090Z,71.30
2018-09-27T17:28:17.247Z,71.42
2018-09-27T17:30:47.442Z,72.15
2018-09-27T17:33:18.243Z,72.42
2018-09-27T17:35:48.573Z,72.48
2018-09-27T17:38:18.933Z,73.12
2018-09-27T17:40:50.151Z,73.26
2018-09-27T17:43:21.626Z,73.48
2018-09-27T17:45:52.038Z,73.65
2018-09-27T17:48:23.628Z,73.83
2018-09-27T17:50:54.385Z,74.22
2018-09-27T17:53:25.579Z,74.29
2018-09-27T17:55:55.912Z,74.72
2018-09-27T17:58:26.186Z,74.55
2018-09-27T18:00:56.450Z,75.09
2018-09-27T18:03:27.844Z,75.51
2018-09-27T18:05:58.740Z,75.50
2018-09-27T18:08:29.162Z,75.69
2018-09-27T18:10:59.053Z,75.84
2018-09-27T18:13:29.233Z,76.09
2018-09-27T18:15:59.475Z,76.68
2018-09-27T18:18:35.803Z,76.61
2018-09-27T18:21:06.196Z,76.41
2018-09-27T18:23:42.353Z,76.71
2018-09-27T18:26:12.874Z,76.62
2018-09-27T18:28:43.446Z,76.95
2018-09-27T18:31:14.770Z,76.82
2018-09-27T18:33:46.548Z,77.57
2018-09-27T18:36:17.486Z,77.76
2018-09-27T18:38:47.435Z,77.91
2018-09-27T18:41:17.821Z,78.20
2018-09-27T18:43:48.052Z,78.44
2018-09-27T18:46:18.281Z,78.77
2018-09-27T18:48:48.592Z,78.98
2018-09-27T18:51:19.840Z,78.90
2018-09-27T18:53:50.016Z,78.77
2018-09-27T18:56:21.162Z,78.24
2018-09-27T18:58:51.317Z,78.66
2018-09-27T19:01:21.741Z,79.28
2018-09-27T19:03:51.810Z,79.40
2018-09-27T19:06:24.040Z,79.87
2018-09-27T19:08:54.578Z,79.84
2018-09-27T19:11:25.086Z,80.05
2018-09-27T19:13:55.653Z,79.85
2018-09-27T19:16:25.849Z,79.89
2018-09-27T19:18:56.404Z,80.35
2018-09-27T19:21:27.789Z,80.59
2018-09-27T19:23:58.878Z,80.86
2018-09-27T19:26:28.933Z,80.77
2018-09-27T19:28:59.464Z,80.85
2018-09-27T19:31:30.690Z,81.19
2018-09-27T19:34:01.852Z,81.10
2018-09-27T19:36:32.054Z,81.06
2018-09-27T19:39:02.997Z,80.88
2018-09-27T19:41:33.010Z,80.89
2018-09-27T19:44:03.478Z,81.50
2018-09-27T19:46:33.416Z,81.27
2018-09-27T19:49:03.449Z,80.73
2018-09-27T19:51:33.349Z,80.69
2018-09-27T19:54:03.618Z,80.68
2018-09-27T19:56:35.099Z,79.63
2018-09-27T19:59:05.454Z,78.38
2018-09-27T20:01:35.752Z,77.66
2018-09-27T20:04:05.819Z,76.83
2018-09-27T20:06:36.288Z,76.73
2018-09-27T20:09:09.403Z,76.16
2018-09-27T20:11:39.451Z,74.43
2018-09-27T20:14:09.718Z,74.42
2018-09-27T20:16:40.075Z,74.17
2018-09-27T20:19:11.002Z,73.87
2018-09-27T20:21:41.207Z,73.96
2018-09-27T20:24:12.022Z,74.19
2018-09-27T20:26:42.473Z,73.96
2018-09-27T20:29:13.109Z,73.92
2018-09-27T20:31:43.743Z,73.57
2018-09-27T20:34:15.137Z,73.19
2018-09-27T20:36:45.297Z,72.56
2018-09-27T20:39:16.357Z,72.02
2018-09-27T20:41:46.581Z,71.71
2018-09-27T20:44:17.374Z,71.06
2018-09-27T20:46:47.542Z,71.22
2018-09-27T20:49:17.768Z,71.42
2018-09-27T20:51:47.994Z,71.46
2018-09-27T20:54:18.489Z,71.72
2018-09-27T20:56:50.104Z,71.75
2018-09-27T20:59:20.335Z,71.25
2018-09-27T21:01:51.848Z,71.79
2018-09-27T21:04:22.304Z,71.92
2018-09-27T21:06:52.516Z,72.05
2018-09-27T21:09:23.084Z,71.52
2018-09-27T21:11:53.570Z,71.12
2018-09-27T21:14:23.939Z,71.28
2018-09-27T21:16:54.084Z,71.24
2018-09-27T21:19:25.116Z,71.78
2018-09-27T21:21:55.173Z,72.16
2018-09-27T21:24:25.641Z,72.40
2018-09-27T21:26:55.812Z,72.88
2018-09-27T21:29:26.278Z,73.02
2018-09-27T21:31:56.691Z,72.66
2018-09-27T21:34:26.783Z,72.50
2018-09-27T21:36:58.093Z,72.25
2018-09-27T21:39:29.511Z,72.66
2018-09-27T21:42:00.021Z,72.98
2018-09-27T21:44:31.492Z,73.50
2018-09-27T21:47:01.765Z,73.73
2018-09-27T21:49:32.092Z,73.47
2018-09-27T21:52:03.440Z,73.56
2018-09-27T21:54:33.682Z,73.04
2018-09-27T21:57:03.989Z,72.70
2018-09-27T21:59:34.417Z,72.44
2018-09-27T22:02:05.601Z,72.32
2018-09-27T22:04:35.998Z,71.85
2018-09-27T22:07:06.165Z,71.74
2018-09-27T22:09:37.845Z,71.71
2018-09-27T22:12:08.045Z,71.71
2018-09-27T22:14:38.418Z,71.67
2018-09-27T22:17:08.760Z,71.97
2018-09-27T22:19:39.043Z,72.14
2018-09-27T22:22:09.451Z,72.09
2018-09-27T22:24:39.766Z,71.97
2018-09-27T22:27:10.088Z,71.80
2018-09-27T22:29:40.480Z,71.42
2018-09-27T22:32:10.699Z,71.45
2018-09-27T22:34:40.803Z,71.09
2018-09-27T22:37:11.245Z,70.73
2018-09-27T22:39:42.373Z,70.77
2018-09-27T22:42:13.410Z,70.79
2018-09-27T22:44:43.589Z,70.93
2018-09-27T22:47:14.822Z,70.10
2018-09-27T22:49:45.583Z,69.44
2018-09-27T22:52:15.797Z,69.05
2018-09-27T22:54:45.818Z,68.96
2018-09-27T22:57:17.132Z,68.26
2018-09-27T22:59:47.487Z,67.84
2018-09-27T23:02:18.049Z,67.36
2018-09-27T23:04:49.197Z,67.20
2018-09-27T23:07:19.331Z,66.89
2018-09-27T23:09:51.267Z,66.76
2018-09-27T23:12:21.343Z,66.31
2018-09-27T23:14:51.711Z,66.55
2018-09-27T23:17:22.222Z,66.50
2018-09-27T23:19:52.486Z,66.19
2018-09-27T23:22:23.317Z,66.41
2018-09-27T23:24:53.487Z,66.13
2018-09-27T23:27:25.896Z,66.12
2018-09-27T23:29:56.107Z,65.84
2018-09-27T23:32:26.033Z,65.49
2018-09-27T23:34:56.346Z,65.84
2018-09-27T23:37:26.579Z,65.89
2018-09-27T23:39:56.679Z,65.68
2018-09-27T23:42:26.967Z,65.73
2018-09-27T23:44:57.436Z,65.37
2018-09-27T23:47:27.891Z,65.11
2018-09-27T23:49:57.817Z,65.20
2018-09-27T23:52:28.028Z,65.66
2018-09-27T23:54:58.384Z,65.51
2018-09-27T23:57:28.580Z,65.68
2018-09-27T23:59:58.929Z,65.54
